首页
METAR-TAF:

METAR-TAF

机场 :

奥黑尔国际机场

芝加哥, 伊利诺伊州, 美国

纬度: 41-58-47N, 经度: 087-54-16W, 海拔: 203米

当前天气观测

该预报发布于57分钟前的08:51 UTC
风速6节,风向西转西南
温度 -6°C
湿度 86%
气压 1026 hPa
能見度: 14.5公里
天空无云

METAR: KORD 150851Z 25006KT 9SM CLR M06/M08 A3029 RMK AO2 SLP268 T10561083 58003

时间: 03:48 (09:48 UTC)

预报

该预报发布于23分钟前的09:25 UTC
预报有效从15日的 09点(UTC)到 16日的 12点(UTC)
风速7节,风向西转西南
能見度: 10公里
天空无云
从 15日的 1500点(UTC)
风速7节,风向西
能見度: 10公里
散云层高于2500英尺
多云层高于3500英尺
从 15日的 2300点(UTC)
风速7节,风向北转东北
能見度: 10公里
散云层高于2500英尺
多云层高于20000英尺
从 16日的 0600点(UTC)
风速5节,风向
能見度: 10公里
散云层高于1500英尺
多云层高于2500英尺

TAF: KORD 150925Z 1509/1612 25007KT P6SM SKC FM151500 28007KT P6SM SCT025 BKN035 FM152300 02007KT P6SM SCT025 BKN200 FM160600 08005KT P6SM SCT015 BKN025

超过4000个机场的气象观测和天气预报(METAR&TAF报告)。

可查询的气象台以黄色和红色小点在地图上表示。

将鼠标移到小点上方,可查看气象台名称。

然后点击查看天气观测和预报。

如需切换地图:点击带黑十字的绿色按钮放大地图;点击带横线的绿色按钮缩小地图;或者点击绿色箭头查看邻近地区的地图。


METAR-TAF: